Time;durP1;ratioP1;P1;durP2;ratioP2;P2;SDS_P1;SDS_P2;PMS_P1;PMS_P2;Temp;Humidity;BMP_temperature;BMP_pressure;BME280_temperature;BME280_humidity;BME280_pressure;Samples;Min_cycle;Max_cycle;Signal;HPM_P1;HPM_P2
2021/07/03 00:02:09;;;;;;;26.10;17.43;;;17.20;99.90;;;;;;4987625;28;20313;-53
2021/07/03 00:04:36;;;;;;;29.07;18.10;;;17.20;99.90;;;;;;4992974;28;20289;-52
2021/07/03 00:07:03;;;;;;;26.57;17.40;;;17.20;99.90;;;;;;4992530;28;20211;-52
2021/07/03 00:09:30;;;;;;;27.50;16.40;;;17.10;99.90;;;;;;4994512;28;21285;-52
2021/07/03 00:12:01;;;;;;;24.17;17.33;;;17.10;99.90;;;;;;4994868;28;20254;-53
2021/07/03 00:14:29;;;;;;;26.87;19.23;;;17.10;99.90;;;;;;4991261;28;20223;-53
2021/07/03 00:16:56;;;;;;;28.93;19.30;;;17.00;99.90;;;;;;4989308;28;20235;-53
2021/07/03 00:19:23;;;;;;;27.77;17.37;;;17.00;99.90;;;;;;4993900;28;20294;-53
2021/07/03 00:21:50;;;;;;;25.37;17.33;;;17.00;99.90;;;;;;4993996;28;20317;-53
2021/07/03 00:24:17;;;;;;;29.50;18.07;;;17.00;99.90;;;;;;4991783;28;20299;-53
2021/07/03 00:26:44;;;;;;;31.80;19.00;;;17.00;99.90;;;;;;4994369;28;20666;-53
2021/07/03 00:29:11;;;;;;;28.20;17.60;;;17.00;99.90;;;;;;4992147;28;20642;-53
2021/07/03 00:31:38;;;;;;;30.60;18.47;;;16.90;99.90;;;;;;4992823;28;20317;-53
2021/07/03 00:34:05;;;;;;;28.20;16.53;;;17.00;99.90;;;;;;4991182;28;20769;-53
2021/07/03 00:36:32;;;;;;;29.97;17.60;;;17.00;99.90;;;;;;4989911;28;20619;-53
2021/07/03 00:38:59;;;;;;;29.97;17.93;;;16.90;99.90;;;;;;4989933;28;20309;-53
2021/07/03 00:41:26;;;;;;;23.77;17.00;;;16.90;99.90;;;;;;4991726;28;20694;-53
2021/07/03 00:43:52;;;;;;;26.97;17.93;;;16.90;99.90;;;;;;4990588;28;20207;-53
2021/07/03 00:46:19;;;;;;;28.20;17.97;;;16.80;99.90;;;;;;4988506;28;20660;-53
2021/07/03 00:48:46;;;;;;;27.27;17.83;;;16.80;99.90;;;;;;4989628;28;20781;-52
2021/07/03 00:51:13;;;;;;;29.57;18.20;;;16.80;99.90;;;;;;4989623;28;20298;-52
2021/07/03 00:53:40;;;;;;;30.17;18.97;;;16.90;99.90;;;;;;4992410;28;20302;-52
2021/07/03 00:56:07;;;;;;;26.33;18.70;;;16.80;99.90;;;;;;4991225;28;20806;-52
2021/07/03 00:58:34;;;;;;;27.40;17.97;;;16.80;99.90;;;;;;4988563;28;20522;-52
2021/07/03 01:01:00;;;;;;;27.43;18.90;;;16.80;99.90;;;;;;4992693;28;20308;-53
2021/07/03 01:03:27;;;;;;;31.60;19.70;;;16.80;99.90;;;;;;4987692;28;20207;-53
2021/07/03 01:05:55;;;;;;;30.97;20.17;;;16.70;99.90;;;;;;4992819;28;20302;-52
2021/07/03 01:08:21;;;;;;;30.00;18.87;;;16.80;99.90;;;;;;4990638;28;20205;-53
2021/07/03 01:10:48;;;;;;;33.07;20.20;;;16.80;99.90;;;;;;4991643;28;20219;-52
2021/07/03 01:13:15;;;;;;;29.57;18.37;;;16.70;99.90;;;;;;4987781;28;20294;-53
2021/07/03 01:15:42;;;;;;;29.00;18.87;;;16.70;99.90;;;;;;4991871;28;20234;-54
2021/07/03 01:18:09;;;;;;;30.60;18.93;;;16.80;99.90;;;;;;4989167;28;20284;-54
2021/07/03 01:20:37;;;;;;;31.63;18.87;;;16.70;99.90;;;;;;4992718;28;20229;-54
2021/07/03 01:23:04;;;;;;;28.90;18.90;;;16.70;99.90;;;;;;4988543;28;20678;-53
2021/07/03 01:25:31;;;;;;;30.00;19.73;;;16.70;99.90;;;;;;4992874;28;20282;-53
2021/07/03 01:28:03;;;;;;;35.83;20.03;;;16.70;99.90;;;;;;4988620;28;20301;-53
2021/07/03 01:30:31;;;;;;;32.87;19.47;;;16.70;99.90;;;;;;4992587;28;20302;-53
2021/07/03 01:32:59;;;;;;;32.03;19.97;;;16.70;99.90;;;;;;4987360;28;20406;-53
2021/07/03 01:35:30;;;;;;;30.63;20.30;;;16.70;99.90;;;;;;4991049;28;20290;-54
2021/07/03 01:37:57;;;;;;;30.27;19.57;;;16.60;99.90;;;;;;4989417;28;20292;-53
2021/07/03 01:40:25;;;;;;;30.67;18.87;;;16.60;99.90;;;;;;4989454;28;20329;-52
2021/07/03 01:42:52;;;;;;;29.27;19.03;;;16.60;99.90;;;;;;4987927;28;20250;-53
2021/07/03 01:45:18;;;;;;;30.33;19.67;;;16.60;99.90;;;;;;4990905;28;20300;-53
2021/07/03 01:47:49;;;;;;;29.80;18.97;;;16.60;99.90;;;;;;4988216;28;20299;-52
2021/07/03 01:50:16;;;;;;;28.53;19.00;;;16.60;99.90;;;;;;4993125;28;20273;-52
2021/07/03 01:52:43;;;;;;;30.90;19.07;;;16.60;99.90;;;;;;4993905;28;20251;-52
2021/07/03 01:55:11;;;;;;;31.03;19.93;;;16.60;99.90;;;;;;4994371;28;20317;-52
2021/07/03 01:57:38;;;;;;;39.53;22.90;;;16.60;99.90;;;;;;4991040;28;20280;-52
2021/07/03 02:00:09;;;;;;;34.20;21.17;;;16.50;99.90;;;;;;4995325;28;20300;-52
2021/07/03 02:02:36;;;;;;;33.10;20.73;;;16.50;99.90;;;;;;4992118;28;20230;-53
2021/07/03 02:05:05;;;;;;;32.10;20.20;;;16.50;99.90;;;;;;4994204;28;20208;-52
2021/07/03 02:07:31;;;;;;;32.47;20.33;;;16.50;99.90;;;;;;4993380;28;20246;-53
2021/07/03 02:09:58;;;;;;;31.10;20.07;;;16.50;99.90;;;;;;4994396;28;20653;-52
2021/07/03 02:12:25;;;;;;;31.30;20.57;;;16.50;99.90;;;;;;4998371;28;20205;-53
2021/07/03 02:14:52;;;;;;;30.20;19.47;;;16.40;99.90;;;;;;4988917;28;20325;-52
2021/07/03 02:17:19;;;;;;;30.33;19.13;;;16.40;99.90;;;;;;4992603;28;20736;-53
2021/07/03 02:19:46;;;;;;;32.97;20.07;;;16.50;99.90;;;;;;4996040;28;20217;-53
2021/07/03 02:22:13;;;;;;;33.73;20.63;;;16.40;99.90;;;;;;4994374;28;22397;-53
2021/07/03 02:24:39;;;;;;;28.80;19.63;;;16.50;99.90;;;;;;4993920;28;20204;-53
2021/07/03 02:27:06;;;;;;;34.53;21.30;;;16.50;99.90;;;;;;4998998;28;20242;-53
2021/07/03 02:29:33;;;;;;;34.57;21.30;;;16.50;99.90;;;;;;4997195;28;20345;-52
2021/07/03 02:32:00;;;;;;;33.23;20.00;;;16.50;99.90;;;;;;4995300;28;20648;-52
2021/07/03 02:34:27;;;;;;;38.57;19.40;;;16.40;99.90;;;;;;4994476;28;20219;-53
2021/07/03 02:36:54;;;;;;;31.03;19.60;;;16.50;99.90;;;;;;4998559;28;20313;-52
2021/07/03 02:39:21;;;;;;;32.83;20.87;;;16.50;99.90;;;;;;4997468;28;20320;-52
2021/07/03 02:41:47;;;;;;;31.67;19.97;;;16.40;99.90;;;;;;4994451;28;20717;-52
2021/07/03 02:44:14;;;;;;;34.73;19.60;;;16.50;99.90;;;;;;4994390;28;20502;-52
2021/07/03 02:46:41;;;;;;;37.87;20.67;;;16.40;99.90;;;;;;4997436;28;20311;-52
2021/07/03 02:49:08;;;;;;;33.57;20.67;;;16.50;99.90;;;;;;4993977;28;20240;-52
2021/07/03 02:51:35;;;;;;;36.10;20.83;;;16.50;99.90;;;;;;4994000;28;20205;-53
2021/07/03 02:54:02;;;;;;;31.77;20.70;;;16.50;99.90;;;;;;4992345;28;20271;-53
2021/07/03 02:56:29;;;;;;;33.50;21.30;;;16.50;99.90;;;;;;4997140;28;20213;-53
2021/07/03 02:58:55;;;;;;;34.03;20.93;;;16.40;99.90;;;;;;4996144;28;20374;-53
2021/07/03 03:01:22;;;;;;;36.37;21.20;;;16.40;99.90;;;;;;4995689;28;20246;-53
2021/07/03 03:03:49;;;;;;;35.47;21.20;;;16.40;99.90;;;;;;4993490;28;20287;-53
2021/07/03 03:06:16;;;;;;;34.67;21.03;;;16.40;99.90;;;;;;4995842;28;20663;-52
2021/07/03 03:08:44;;;;;;;36.20;21.47;;;16.40;99.90;;;;;;4994309;28;20297;-52
2021/07/03 03:11:11;;;;;;;33.83;20.67;;;16.50;99.90;;;;;;4994352;28;20299;-53
2021/07/03 03:13:37;;;;;;;34.27;20.70;;;16.40;99.90;;;;;;4995532;28;20697;-53
2021/07/03 03:16:05;;;;;;;34.93;21.37;;;16.40;99.90;;;;;;4992964;28;20205;-53
2021/07/03 03:18:32;;;;;;;30.97;20.60;;;16.40;99.90;;;;;;4992322;28;20617;-53
2021/07/03 03:20:58;;;;;;;33.40;21.73;;;16.40;99.90;;;;;;4993984;28;20342;-53
2021/07/03 03:23:25;;;;;;;32.80;21.13;;;16.40;99.90;;;;;;4991088;28;20279;-53
2021/07/03 03:25:53;;;;;;;33.93;21.53;;;16.30;99.90;;;;;;4994605;28;20266;-53
2021/07/03 03:28:20;;;;;;;38.50;22.70;;;16.30;99.90;;;;;;4996347;28;20237;-53
2021/07/03 03:30:46;;;;;;;30.73;19.57;;;16.40;99.90;;;;;;4999114;28;20369;-53
2021/07/03 03:33:13;;;;;;;33.87;21.67;;;16.40;99.90;;;;;;4990956;28;20297;-53
2021/07/03 03:35:40;;;;;;;36.33;21.23;;;16.40;99.90;;;;;;4995914;28;20257;-53
2021/07/03 03:38:07;;;;;;;37.57;22.07;;;16.40;99.90;;;;;;4995723;28;20462;-53
2021/07/03 03:40:34;;;;;;;39.57;21.50;;;16.30;99.90;;;;;;4992318;28;20379;-53
2021/07/03 03:43:01;;;;;;;32.07;20.73;;;16.40;99.90;;;;;;4991352;28;20298;-54
2021/07/03 03:45:28;;;;;;;37.73;22.03;;;16.40;99.90;;;;;;4993557;28;20205;-54
2021/07/03 03:47:55;;;;;;;35.80;22.93;;;16.50;99.90;;;;;;4992969;28;20304;-54
2021/07/03 03:50:22;;;;;;;35.47;21.47;;;16.40;99.90;;;;;;4996506;28;20251;-53
2021/07/03 03:52:48;;;;;;;32.63;21.50;;;16.40;99.90;;;;;;4993143;28;20292;-54
2021/07/03 03:55:15;;;;;;;38.40;21.57;;;16.40;99.90;;;;;;4994675;28;20233;-54
2021/07/03 03:57:42;;;;;;;38.37;22.37;;;16.40;99.90;;;;;;4993611;28;20648;-53
2021/07/03 04:00:10;;;;;;;35.87;21.83;;;16.50;99.90;;;;;;4996352;28;20306;-53
2021/07/03 04:02:37;;;;;;;31.73;20.90;;;16.50;99.90;;;;;;4991289;28;20242;-53
2021/07/03 04:05:06;;;;;;;33.90;21.20;;;16.50;99.90;;;;;;4991273;28;20199;-54
2021/07/03 04:07:33;;;;;;;34.17;22.33;;;16.50;99.90;;;;;;4991566;28;20288;-53
2021/07/03 04:09:59;;;;;;;34.73;23.07;;;16.50;99.90;;;;;;4996300;28;20309;-53
2021/07/03 04:12:27;;;;;;;36.77;22.13;;;16.50;99.90;;;;;;4992462;28;20263;-53
2021/07/03 04:14:53;;;;;;;41.80;22.77;;;16.60;99.90;;;;;;4993232;28;20747;-53
2021/07/03 04:17:20;;;;;;;34.07;21.13;;;16.60;99.90;;;;;;4988786;28;20270;-53
2021/07/03 04:19:47;;;;;;;34.70;21.90;;;16.60;99.90;;;;;;4991436;28;20230;-53
2021/07/03 04:22:15;;;;;;;36.03;22.33;;;16.60;99.90;;;;;;4989361;28;20204;-53
2021/07/03 04:24:42;;;;;;;39.43;22.43;;;16.60;99.90;;;;;;4992727;28;20315;-53
2021/07/03 04:27:09;;;;;;;37.23;21.13;;;16.70;99.90;;;;;;4993315;28;20888;-53
2021/07/03 04:29:36;;;;;;;39.57;22.93;;;16.60;99.90;;;;;;4991952;28;20297;-53
2021/07/03 04:32:03;;;;;;;33.17;21.73;;;16.60;99.90;;;;;;4992914;28;20310;-53
2021/07/03 04:34:30;;;;;;;35.10;22.03;;;16.60;99.90;;;;;;4992099;28;20292;-53
2021/07/03 04:36:58;;;;;;;36.97;22.40;;;16.70;99.90;;;;;;4993588;28;20296;-53
2021/07/03 04:39:25;;;;;;;37.10;22.73;;;16.70;99.90;;;;;;4992959;28;20238;-53
2021/07/03 04:41:53;;;;;;;33.47;22.20;;;16.70;99.90;;;;;;4989874;28;20807;-52
2021/07/03 04:44:21;;;;;;;33.07;21.23;;;16.70;99.90;;;;;;4992340;28;20295;-53
2021/07/03 04:46:48;;;;;;;31.73;21.77;;;16.70;99.90;;;;;;4994570;28;20266;-53
2021/07/03 04:49:16;;;;;;;35.10;21.63;;;16.70;99.90;;;;;;4995929;28;20873;-53
2021/07/03 04:51:42;;;;;;;36.20;22.37;;;16.70;99.90;;;;;;4992648;28;20234;-53
2021/07/03 04:54:10;;;;;;;33.33;21.73;;;16.80;99.90;;;;;;4990259;28;20648;-53
2021/07/03 04:56:36;;;;;;;33.20;21.50;;;16.80;99.90;;;;;;4993310;28;20304;-53
2021/07/03 04:59:04;;;;;;;34.20;21.70;;;16.80;99.90;;;;;;4993454;28;20283;-53
2021/07/03 05:01:31;;;;;;;35.50;21.83;;;16.90;99.90;;;;;;4989539;28;20360;-53
2021/07/03 05:03:58;;;;;;;37.97;22.73;;;16.90;99.90;;;;;;4993134;28;20253;-53
2021/07/03 05:06:25;;;;;;;33.27;23.00;;;16.90;99.90;;;;;;4993939;28;20359;-53
2021/07/03 05:08:51;;;;;;;32.53;22.10;;;17.00;99.90;;;;;;4997145;28;20662;-53
2021/07/03 05:11:18;;;;;;;39.37;23.10;;;17.10;99.90;;;;;;4995292;28;20335;-53
2021/07/03 05:13:45;;;;;;;36.33;21.63;;;17.20;99.90;;;;;;4994196;28;20341;-52
2021/07/03 05:16:12;;;;;;;36.13;21.50;;;17.30;99.90;;;;;;4989952;28;20203;-53
2021/07/03 05:18:39;;;;;;;34.63;21.73;;;17.30;99.90;;;;;;4993033;28;20726;-53
2021/07/03 05:21:06;;;;;;;34.63;21.87;;;17.40;99.90;;;;;;4994829;28;20643;-53
2021/07/03 05:23:33;;;;;;;34.50;22.43;;;17.40;99.90;;;;;;4990804;28;20317;-53
2021/07/03 05:26:00;;;;;;;33.40;22.60;;;17.50;99.90;;;;;;4994693;28;20293;-53
2021/07/03 05:28:27;;;;;;;32.87;22.57;;;17.50;99.90;;;;;;4999284;28;20306;-52
2021/07/03 05:30:54;;;;;;;36.50;22.63;;;17.60;99.90;;;;;;4996919;28;20761;-53
2021/07/03 05:33:21;;;;;;;34.80;22.87;;;17.60;99.90;;;;;;4994515;28;20284;-53
2021/07/03 05:35:47;;;;;;;34.67;22.73;;;17.60;99.90;;;;;;4998758;28;20291;-53
2021/07/03 05:38:14;;;;;;;33.77;22.60;;;17.60;99.90;;;;;;4995967;28;20294;-53
2021/07/03 05:40:41;;;;;;;32.77;21.80;;;17.60;99.90;;;;;;4997985;28;20235;-53
2021/07/03 05:43:08;;;;;;;33.43;21.33;;;17.70;99.90;;;;;;4996252;28;20313;-53
2021/07/03 05:45:35;;;;;;;34.87;21.33;;;17.80;99.90;;;;;;4998695;28;22210;-53
2021/07/03 05:48:02;;;;;;;35.03;22.77;;;17.90;99.90;;;;;;4994188;28;20656;-53
2021/07/03 05:50:30;;;;;;;33.90;21.80;;;18.00;99.90;;;;;;4995468;28;20328;-53
2021/07/03 05:52:57;;;;;;;34.23;21.67;;;18.10;99.90;;;;;;4988027;28;20266;-53
2021/07/03 05:55:24;;;;;;;37.07;21.97;;;18.20;99.90;;;;;;4996545;28;20206;-53
2021/07/03 05:57:50;;;;;;;32.40;21.03;;;18.10;99.90;;;;;;4997064;28;20314;-53
2021/07/03 06:00:18;;;;;;;30.63;21.17;;;18.10;99.90;;;;;;4993121;28;20288;-53
2021/07/03 06:02:45;;;;;;;33.47;20.03;;;18.20;99.90;;;;;;4992186;28;20401;-53
2021/07/03 06:05:12;;;;;;;32.13;21.13;;;18.30;99.90;;;;;;4994557;28;20305;-53
2021/07/03 06:07:39;;;;;;;32.20;20.53;;;18.40;99.90;;;;;;4997035;28;20238;-53
2021/07/03 06:10:06;;;;;;;33.13;20.43;;;18.30;99.90;;;;;;4996110;28;20613;-53
2021/07/03 06:12:33;;;;;;;30.87;19.93;;;18.50;99.90;;;;;;4994116;28;20211;-53
2021/07/03 06:15:01;;;;;;;32.63;21.33;;;18.50;99.90;;;;;;4994369;28;20295;-53
2021/07/03 06:17:28;;;;;;;32.13;21.63;;;18.50;99.90;;;;;;4993637;28;20306;-53
2021/07/03 06:19:54;;;;;;;28.73;19.57;;;18.60;99.90;;;;;;4999976;28;20291;-53
2021/07/03 06:22:21;;;;;;;29.83;20.20;;;18.60;99.90;;;;;;4994436;28;20275;-53
2021/07/03 06:24:48;;;;;;;30.00;19.03;;;18.60;99.90;;;;;;4994877;28;20450;-53
2021/07/03 06:27:16;;;;;;;30.87;19.90;;;18.70;99.90;;;;;;4995022;28;20628;-53
2021/07/03 06:29:43;;;;;;;27.17;18.30;;;18.80;99.90;;;;;;4994753;28;20595;-53
2021/07/03 06:32:10;;;;;;;31.23;18.77;;;18.90;99.90;;;;;;4995447;28;20225;-53
2021/07/03 06:34:38;;;;;;;29.63;19.10;;;19.00;99.90;;;;;;4992815;28;20218;-52
2021/07/03 06:37:06;;;;;;;26.50;18.87;;;19.20;99.90;;;;;;4994210;28;20211;-52
2021/07/03 06:39:33;;;;;;;28.43;19.27;;;19.20;99.90;;;;;;4994699;28;20237;-52
2021/07/03 06:42:00;;;;;;;25.53;18.10;;;19.40;99.90;;;;;;4994031;28;20978;-53
2021/07/03 06:44:27;;;;;;;28.13;19.10;;;19.40;99.90;;;;;;4995719;28;20643;-52
2021/07/03 06:46:53;;;;;;;28.13;18.53;;;19.40;99.90;;;;;;4995063;28;20660;-53
2021/07/03 06:49:21;;;;;;;28.03;18.43;;;19.60;99.90;;;;;;4995538;28;20248;-53
2021/07/03 06:51:48;;;;;;;25.13;18.47;;;19.80;99.90;;;;;;4992475;28;20251;-52
2021/07/03 06:54:14;;;;;;;24.80;18.30;;;19.90;99.90;;;;;;4994712;28;20290;-53
2021/07/03 06:56:41;;;;;;;28.70;18.07;;;20.10;99.90;;;;;;4996388;28;20309;-53
2021/07/03 06:59:08;;;;;;;26.30;17.23;;;20.10;99.90;;;;;;4998166;28;20230;-53
2021/07/03 07:01:35;;;;;;;24.43;17.77;;;20.20;99.90;;;;;;4994381;28;20721;-53
2021/07/03 07:04:03;;;;;;;28.57;17.90;;;20.20;99.90;;;;;;4991349;28;20661;-53
2021/07/03 07:06:29;;;;;;;25.97;17.70;;;20.30;99.90;;;;;;4996751;28;20537;-52
2021/07/03 07:08:56;;;;;;;26.80;17.70;;;20.60;99.90;;;;;;4994382;28;20562;-53
2021/07/03 07:11:23;;;;;;;25.50;17.73;;;20.80;99.90;;;;;;4993117;28;20265;-53
2021/07/03 07:13:50;;;;;;;23.47;16.03;;;20.90;99.90;;;;;;4994223;28;20308;-53
2021/07/03 07:16:17;;;;;;;24.23;17.00;;;21.00;99.90;;;;;;4992205;28;20300;-53
2021/07/03 07:18:44;;;;;;;25.13;16.70;;;21.20;99.90;;;;;;4994340;28;20208;-53
2021/07/03 07:21:10;;;;;;;22.07;16.47;;;21.40;99.90;;;;;;4996990;28;20626;-52
2021/07/03 07:23:37;;;;;;;21.83;16.03;;;21.40;99.90;;;;;;4992483;28;20711;-52
2021/07/03 07:26:04;;;;;;;25.70;15.93;;;21.50;99.90;;;;;;4991167;28;20207;-52
2021/07/03 07:28:31;;;;;;;23.83;16.67;;;21.50;60.00;;;;;;4994517;28;20221;-52
2021/07/03 07:30:57;;;;;;;22.60;16.87;;;21.40;99.90;;;;;;4994286;28;20545;-51
2021/07/03 07:33:25;;;;;;;24.73;16.73;;;21.70;99.90;;;;;;4992845;28;20201;-51
2021/07/03 07:35:51;;;;;;;20.53;14.63;;;22.70;99.90;;;;;;4992497;28;20724;-51
2021/07/03 07:38:18;;;;;;;21.13;14.67;;;23.30;1.00;;;;;;4992412;28;20308;-51
2021/07/03 07:40:45;;;;;;;19.60;12.80;;;23.70;1.00;;;;;;4995302;28;20388;-51
2021/07/03 07:43:12;;;;;;;21.73;14.90;;;24.00;1.00;;;;;;4996456;28;20303;-52
2021/07/03 07:45:39;;;;;;;19.43;12.67;;;24.40;1.00;;;;;;4993808;28;20746;-51
2021/07/03 07:48:06;;;;;;;18.13;12.80;;;24.80;1.00;;;;;;4991859;28;20292;-52
2021/07/03 07:50:34;;;;;;;15.13;11.70;;;24.40;1.00;;;;;;4992570;28;20347;-52
2021/07/03 07:53:01;;;;;;;16.90;12.17;;;25.10;1.00;;;;;;4992846;28;20314;-53
2021/07/03 07:55:28;;;;;;;17.30;12.00;;;25.50;1.00;;;;;;4995801;28;20241;-52
2021/07/03 07:57:55;;;;;;;15.83;11.30;;;26.10;1.00;;;;;;4993648;28;20235;-51
2021/07/03 08:00:22;;;;;;;16.73;12.43;;;26.50;99.90;;;;;;4993328;28;20241;-52
2021/07/03 08:02:50;;;;;;;18.43;12.93;;;26.30;1.00;;;;;;4992692;28;20214;-51
2021/07/03 08:05:18;;;;;;;16.33;12.80;;;26.40;53.90;;;;;;4993212;28;20300;-52
2021/07/03 08:07:45;;;;;;;17.50;13.53;;;26.40;1.00;;;;;;4993579;28;20291;-51
2021/07/03 08:10:13;;;;;;;18.00;12.53;;;26.30;1.00;;;;;;4989332;28;20248;-51
2021/07/03 08:12:41;;;;;;;16.73;12.07;;;27.20;1.00;;;;;;4995055;28;20655;-51
2021/07/03 08:15:10;;;;;;;18.43;11.97;;;27.20;1.00;;;;;;4992245;28;20328;-51
2021/07/03 08:17:43;;;;;;;19.83;12.60;;;27.30;1.00;;;;;;4990512;28;20214;-50
2021/07/03 08:20:16;;;;;;;17.00;12.17;;;27.60;1.00;;;;;;4992550;28;20292;-51
2021/07/03 08:22:44;;;;;;;15.67;11.57;;;27.40;99.90;;;;;;4990636;28;20680;-51
2021/07/03 08:25:12;;;;;;;13.83;10.50;;;27.30;1.00;;;;;;4992028;28;20546;-51
2021/07/03 08:27:39;;;;;;;13.67;10.03;;;27.50;1.00;;;;;;4996908;28;20205;-52
2021/07/03 08:30:07;;;;;;;13.93;9.63;;;27.10;99.90;;;;;;4989927;28;20255;-50
2021/07/03 08:32:34;;;;;;;14.53;9.53;;;27.90;1.00;;;;;;4989598;28;20238;-50
2021/07/03 08:35:02;;;;;;;15.20;10.20;;;28.40;99.90;;;;;;4992032;28;20214;-51
2021/07/03 08:37:29;;;;;;;9.57;7.60;;;28.10;99.90;;;;;;4991699;28;20250;-52
2021/07/03 08:39:56;;;;;;;9.23;8.03;;;28.70;99.90;;;;;;4991695;28;20320;-51
2021/07/03 08:42:23;;;;;;;14.77;11.07;;;29.30;99.90;;;;;;4989140;28;20300;-52
2021/07/03 08:44:50;;;;;;;15.37;10.70;;;27.90;1.00;;;;;;4990378;28;20213;-51
2021/07/03 08:47:32;;;;;;;11.47;8.37;;;27.50;1.00;;;;;;4988092;28;20210;-51
2021/07/03 08:50:01;;;;;;;10.83;8.53;;;27.60;1.00;;;;;;4989467;28;20404;-51
2021/07/03 08:52:29;;;;;;;12.60;9.30;;;27.60;1.00;;;;;;4989701;28;20323;-50
2021/07/03 08:55:15;;;;;;;14.80;10.00;;;26.60;99.90;;;;;;4986680;28;20723;-51
2021/07/03 08:57:46;;;;;;;13.43;10.07;;;26.20;99.90;;;;;;4989707;28;20292;-51
2021/07/03 09:00:14;;;;;;;13.70;9.50;;;25.70;99.90;;;;;;4992833;28;20220;-52
2021/07/03 09:02:44;;;;;;;14.87;10.20;;;25.90;1.00;;;;;;4986758;28;20538;-52
2021/07/03 09:05:28;;;;;;;11.10;8.70;;;26.00;99.90;;;;;;4991470;28;20206;-52
2021/07/03 09:08:07;;;;;;;10.37;8.30;;;26.40;1.00;;;;;;4988056;28;20261;-52
2021/07/03 09:10:36;;;;;;;10.60;7.73;;;26.40;99.90;;;;;;4989965;28;20275;-52
2021/07/03 09:13:04;;;;;;;12.67;8.60;;;26.40;1.00;;;;;;4987798;28;20294;-51
2021/07/03 09:15:37;;;;;;;13.87;9.90;;;26.00;99.90;;;;;;4990294;28;20236;-51
2021/07/03 09:18:06;;;;;;;13.43;9.80;;;25.30;99.30;;;;;;4990426;28;20206;-51
2021/07/03 09:20:35;;;;;;;12.43;9.57;;;24.60;1.00;;;;;;4991422;28;20319;-51
2021/07/03 09:23:10;;;;;;;12.77;9.07;;;24.60;1.00;;;;;;4989591;28;20241;-51
2021/07/03 09:25:40;;;;;;;13.83;9.67;;;24.80;99.90;;;;;;4992434;28;20223;-51
2021/07/03 09:28:11;;;;;;;13.03;9.73;;;24.70;99.90;;;;;;4990515;28;20293;-51
2021/07/03 09:30:39;;;;;;;12.37;8.67;;;24.40;99.90;;;;;;4991683;28;20321;-51
2021/07/03 09:33:06;;;;;;;12.67;8.70;;;24.40;1.00;;;;;;4989605;28;20285;-52
2021/07/03 09:35:33;;;;;;;10.53;7.93;;;24.20;1.00;;;;;;4988849;28;20339;-52
2021/07/03 09:38:06;;;;;;;12.00;8.67;;;24.20;99.90;;;;;;4995047;28;20226;-51
2021/07/03 09:40:37;;;;;;;9.83;7.27;;;24.20;6.40;;;;;;4989145;28;20239;-52
2021/07/03 09:43:07;;;;;;;10.80;7.47;;;24.30;1.00;;;;;;4991787;28;20239;-51
2021/07/03 09:45:35;;;;;;;12.67;8.00;;;24.60;1.00;;;;;;4989434;28;20228;-51
2021/07/03 09:48:10;;;;;;;9.50;7.40;;;24.30;99.90;;;;;;4992326;28;20314;-52
2021/07/03 09:50:39;;;;;;;9.10;6.73;;;24.00;1.00;;;;;;4992540;28;20247;-52
2021/07/03 09:53:07;;;;;;;11.63;8.23;;;24.10;99.90;;;;;;4992289;28;20252;-51
2021/07/03 09:55:38;;;;;;;9.20;7.70;;;24.20;99.90;;;;;;4993865;28;21126;-52
2021/07/03 09:58:08;;;;;;;11.20;7.87;;;24.00;99.90;;;;;;4993576;28;20205;-51
2021/07/03 10:00:36;;;;;;;11.47;8.43;;;24.10;1.00;;;;;;4991637;28;20297;-51
2021/07/03 10:03:06;;;;;;;11.00;7.60;;;24.20;1.00;;;;;;4991194;28;20290;-51
2021/07/03 10:05:39;;;;;;;10.50;8.13;;;24.30;1.00;;;;;;4992559;28;20304;-51
2021/07/03 10:08:09;;;;;;;12.80;7.53;;;24.10;1.00;;;;;;4994192;28;20256;-51
2021/07/03 10:10:37;;;;;;;12.57;7.90;;;24.00;99.90;;;;;;4993097;28;20208;-52
2021/07/03 10:13:11;;;;;;;12.47;9.07;;;24.00;99.90;;;;;;4995458;28;20235;-52
2021/07/03 10:15:38;;;;;;;10.13;8.40;;;23.90;1.00;;;;;;4987756;28;20340;-51
2021/07/03 10:18:21;;;;;;;8.97;7.40;;;23.90;99.90;;;;;;4996555;28;20289;-51
2021/07/03 10:20:49;;;;;;;9.27;7.17;;;23.90;99.90;;;;;;4997713;28;20238;-51
2021/07/03 10:23:16;;;;;;;9.57;7.60;;;23.90;1.00;;;;;;4997042;28;20672;-52
2021/07/03 10:25:45;;;;;;;8.87;7.53;;;24.00;1.00;;;;;;4997099;28;21714;-52
2021/07/03 10:28:14;;;;;;;10.27;7.53;;;24.10;99.90;;;;;;4996045;28;21490;-52
2021/07/03 10:30:44;;;;;;;9.47;7.20;;;24.00;1.00;;;;;;4999287;28;20224;-52
2021/07/03 10:33:19;;;;;;;9.47;7.43;;;24.00;1.00;;;;;;4996773;28;20280;-52
2021/07/03 10:35:52;;;;;;;10.30;7.00;;;24.20;1.00;;;;;;4996813;28;20293;-51
2021/07/03 10:38:20;;;;;;;10.23;7.17;;;24.30;99.90;;;;;;4995452;28;20229;-51
2021/07/03 10:40:52;;;;;;;8.83;6.73;;;24.20;1.40;;;;;;4997044;28;21017;-51
2021/07/03 10:43:21;;;;;;;9.30;7.20;;;24.40;99.90;;;;;;4995021;28;20195;-51
2021/07/03 10:45:52;;;;;;;9.47;6.93;;;24.40;99.90;;;;;;4996503;28;20254;-51
2021/07/03 10:48:21;;;;;;;10.60;7.07;;;24.50;1.00;;;;;;4994979;28;20319;-52
2021/07/03 10:50:49;;;;;;;10.73;7.00;;;24.50;1.00;;;;;;4997361;28;20625;-51
2021/07/03 10:53:28;;;;;;;7.33;6.47;;;24.50;99.90;;;;;;4993751;28;20635;-51
2021/07/03 10:56:09;;;;;;;7.70;6.40;;;24.50;99.90;;;;;;4993169;28;20230;-51
2021/07/03 10:58:40;;;;;;;8.03;6.43;;;24.40;1.00;;;;;;4994872;28;20349;-51
2021/07/03 11:01:15;;;;;;;6.87;6.00;;;24.00;48.10;;;;;;4995973;28;20379;-50
2021/07/03 11:03:49;;;;;;;9.43;6.90;;;24.10;1.00;;;;;;4994907;28;20606;-51
2021/07/03 11:06:18;;;;;;;7.10;5.73;;;24.00;1.00;;;;;;4997428;28;20239;-51
2021/07/03 11:08:49;;;;;;;7.57;6.50;;;24.00;15.60;;;;;;4994024;28;21063;-50
2021/07/03 11:11:17;;;;;;;11.47;6.93;;;24.00;99.90;;;;;;4997491;28;20284;-52
2021/07/03 11:13:46;;;;;;;7.00;6.27;;;24.00;99.90;;;;;;4995674;28;20631;-51
2021/07/03 11:16:15;;;;;;;9.30;6.33;;;23.70;1.00;;;;;;4996969;28;20229;-51
2021/07/03 11:18:44;;;;;;;7.77;6.27;;;23.80;1.00;;;;;;4995274;28;20628;-51
2021/07/03 11:21:14;;;;;;;9.37;6.63;;;23.70;99.90;;;;;;4997719;28;20202;-52
2021/07/03 11:23:40;;;;;;;7.13;6.13;;;23.80;99.90;;;;;;4992149;28;20600;-51
2021/07/03 11:26:15;;;;;;;8.00;7.03;;;24.00;99.90;;;;;;4994725;28;20573;-51
2021/07/03 11:28:48;;;;;;;6.43;5.73;;;24.00;1.00;;;;;;4992544;28;20353;-51
2021/07/03 11:31:18;;;;;;;6.87;5.47;;;23.90;99.90;;;;;;4994025;28;20699;-51
2021/07/03 11:33:45;;;;;;;6.53;5.43;;;23.90;99.90;;;;;;4993508;28;20298;-51
2021/07/03 11:36:14;;;;;;;6.20;5.00;;;23.70;1.00;;;;;;4994374;28;20291;-51
2021/07/03 11:38:41;;;;;;;5.83;5.23;;;23.60;1.00;;;;;;4987592;28;20229;-51
2021/07/03 11:41:08;;;;;;;6.50;5.13;;;23.60;99.90;;;;;;4994414;28;20339;-52
2021/07/03 11:43:35;;;;;;;6.37;4.77;;;23.70;1.00;;;;;;4995028;28;20223;-51
2021/07/03 11:46:03;;;;;;;6.17;4.40;;;23.60;1.00;;;;;;4996746;28;20809;-53
2021/07/03 11:48:30;;;;;;;6.00;5.20;;;23.60;99.90;;;;;;4994704;28;20604;-51
2021/07/03 11:51:02;;;;;;;5.50;4.73;;;23.60;1.00;;;;;;4995463;28;20246;-51
2021/07/03 11:53:33;;;;;;;5.90;4.73;;;23.60;99.90;;;;;;5009283;28;20214;-52
2021/07/03 11:56:03;;;;;;;7.20;5.70;;;23.30;1.00;;;;;;4994446;28;20228;-52
2021/07/03 11:58:32;;;;;;;5.50;4.80;;;23.50;99.90;;;;;;4995000;28;20386;-52
2021/07/03 12:01:02;;;;;;;6.47;5.17;;;23.60;99.90;;;;;;4994693;28;20314;-51
2021/07/03 12:03:33;;;;;;;5.00;4.47;;;23.70;1.00;;;;;;4994373;28;20239;-51
2021/07/03 12:06:03;;;;;;;5.43;4.93;;;23.70;1.00;;;;;;4995187;28;20203;-51
2021/07/03 12:08:32;;;;;;;7.67;5.03;;;23.80;99.90;;;;;;4992926;28;20199;-51
2021/07/03 12:11:02;;;;;;;6.13;5.17;;;24.00;1.00;;;;;;4995904;28;20307;-52
2021/07/03 12:13:30;;;;;;;5.40;4.90;;;23.90;99.90;;;;;;4994070;28;20219;-51
2021/07/03 12:15:57;;;;;;;6.63;5.50;;;23.90;1.00;;;;;;4994630;28;20206;-51
2021/07/03 12:18:55;;;;;;;6.60;5.20;;;24.00;99.90;;;;;;4991160;28;20294;-51
2021/07/03 12:21:25;;;;;;;6.87;4.97;;;24.00;1.00;;;;;;4993129;28;20210;-52
2021/07/03 12:24:00;;;;;;;8.63;6.13;;;24.00;1.00;;;;;;4992336;28;20296;-51
2021/07/03 12:26:39;;;;;;;7.47;6.00;;;23.80;99.90;;;;;;4993858;28;20227;-51
2021/07/03 12:29:07;;;;;;;6.37;5.60;;;23.70;1.00;;;;;;4992304;28;20350;-51
2021/07/03 12:31:38;;;;;;;9.83;6.53;;;23.60;1.00;;;;;;4992308;28;20269;-51
2021/07/03 12:34:14;;;;;;;14.83;6.50;;;23.60;99.90;;;;;;4993978;28;20262;-51
2021/07/03 12:36:44;;;;;;;8.07;6.07;;;23.50;1.00;;;;;;4991594;28;20244;-51
2021/07/03 12:39:16;;;;;;;6.60;5.87;;;23.60;1.00;;;;;;4994014;28;20293;-50